createdAt,value
2018-03-20T00:01:29.254Z,75.53
2018-03-20T00:03:56.881Z,75.74
2018-03-20T00:06:24.599Z,77.02
2018-03-20T00:08:52.166Z,77.54
2018-03-20T00:11:20.102Z,78.69
2018-03-20T00:13:47.780Z,79.19
2018-03-20T00:16:15.409Z,79.92
2018-03-20T00:18:43.049Z,80.33
2018-03-20T00:21:10.900Z,80.43
2018-03-20T00:23:38.753Z,80.69
2018-03-20T00:26:06.322Z,80.75
2018-03-20T00:28:34.113Z,80.85
2018-03-20T00:31:01.818Z,81.72
2018-03-20T00:33:29.379Z,81.87
2018-03-20T00:35:57.008Z,81.50
2018-03-20T00:38:24.940Z,81.58
2018-03-20T00:40:52.581Z,82.24
2018-03-20T00:43:20.271Z,82.19
2018-03-20T00:45:48.146Z,82.73
2018-03-20T00:48:15.724Z,82.37
2018-03-20T00:50:43.383Z,82.43
2018-03-20T00:53:11.011Z,82.38
2018-03-20T00:55:38.598Z,82.77
2018-03-20T00:58:06.213Z,83.15
2018-03-20T01:00:33.821Z,84.39
2018-03-20T01:03:01.485Z,84.73
2018-03-20T01:05:29.072Z,84.42
2018-03-20T01:07:56.640Z,84.79
2018-03-20T01:10:24.288Z,84.92
2018-03-20T01:12:51.901Z,85.39
2018-03-20T01:15:19.470Z,85.03
2018-03-20T01:17:47.131Z,84.81
2018-03-20T01:20:14.746Z,85.05
2018-03-20T01:22:42.330Z,85.64
2018-03-20T01:25:10.003Z,86.01
2018-03-20T01:27:37.646Z,85.95
2018-03-20T01:30:05.224Z,86.12
2018-03-20T01:32:32.943Z,86.81
2018-03-20T01:35:00.498Z,87.58
2018-03-20T01:37:28.077Z,87.93
2018-03-20T01:39:55.773Z,87.67
2018-03-20T01:42:23.346Z,88.32
2018-03-20T01:44:51.003Z,89.15
2018-03-20T01:47:18.645Z,89.50
2018-03-20T01:49:46.531Z,89.61
2018-03-20T01:52:14.507Z,89.35
2018-03-20T01:54:42.087Z,89.58
2018-03-20T01:57:09.755Z,89.54
2018-03-20T01:59:37.327Z,89.74
2018-03-20T02:02:05.900Z,89.87
2018-03-20T02:04:33.541Z,90.07
2018-03-20T02:07:01.127Z,90.37
2018-03-20T02:09:28.734Z,90.21
2018-03-20T02:11:56.408Z,90.04
2018-03-20T02:14:24.041Z,90.28
2018-03-20T02:16:51.728Z,90.41
2018-03-20T02:19:19.600Z,91.63
2018-03-20T02:21:47.196Z,91.56
2018-03-20T02:24:15.272Z,91.93
2018-03-20T02:26:42.835Z,92.42
2018-03-20T02:29:10.615Z,92.40
2018-03-20T02:31:38.380Z,92.75
2018-03-20T02:34:06.008Z,93.10
2018-03-20T02:36:33.851Z,93.01
2018-03-20T02:39:01.438Z,92.86
2018-03-20T02:41:29.085Z,92.79
2018-03-20T02:43:56.714Z,92.78
2018-03-20T02:46:24.293Z,92.60
2018-03-20T02:48:51.986Z,92.74
2018-03-20T02:51:19.896Z,92.54
2018-03-20T02:53:47.652Z,92.53
2018-03-20T02:56:15.340Z,92.31
2018-03-20T02:58:42.932Z,92.09
2018-03-20T03:01:10.891Z,91.98
2018-03-20T03:03:38.492Z,91.77
2018-03-20T03:06:06.169Z,91.65
2018-03-20T03:08:33.754Z,91.38
2018-03-20T03:11:01.484Z,91.29
2018-03-20T03:13:29.060Z,91.16
2018-03-20T03:15:56.714Z,91.00
2018-03-20T03:18:24.345Z,90.82
2018-03-20T03:20:52.244Z,90.61
2018-03-20T03:23:19.842Z,90.37
2018-03-20T03:25:47.603Z,90.39
2018-03-20T03:28:15.247Z,90.11
2018-03-20T03:30:42.936Z,90.14
2018-03-20T03:33:10.562Z,90.31
2018-03-20T03:35:38.157Z,90.24
2018-03-20T03:38:05.977Z,90.18
2018-03-20T03:40:33.595Z,90.53
2018-03-20T03:43:01.553Z,90.48
2018-03-20T03:45:29.114Z,90.59
2018-03-20T03:47:56.948Z,90.55
2018-03-20T03:50:24.512Z,90.44
2018-03-20T03:52:52.407Z,90.03
2018-03-20T03:55:20.109Z,89.82
2018-03-20T03:57:47.855Z,89.48
2018-03-20T04:00:15.490Z,89.21
2018-03-20T04:02:43.131Z,88.91
2018-03-20T04:05:10.886Z,88.73
2018-03-20T04:07:38.588Z,88.54
2018-03-20T04:10:06.377Z,88.17
2018-03-20T04:12:34.165Z,87.77
2018-03-20T04:15:01.798Z,87.76
2018-03-20T04:17:29.626Z,87.62
2018-03-20T04:19:57.484Z,86.97
2018-03-20T04:22:25.126Z,86.93
2018-03-20T04:24:52.930Z,87.22
2018-03-20T04:27:20.889Z,86.64
2018-03-20T04:29:48.564Z,86.37
2018-03-20T04:32:16.261Z,86.17
2018-03-20T04:34:43.863Z,86.08
2018-03-20T04:37:11.426Z,86.14
2018-03-20T04:39:39.014Z,86.39
2018-03-20T04:42:06.780Z,86.60
2018-03-20T04:44:34.382Z,86.66
2018-03-20T04:47:01.970Z,86.82
2018-03-20T04:49:29.870Z,86.89
2018-03-20T04:51:57.468Z,86.74
2018-03-20T04:54:25.122Z,86.57
2018-03-20T04:56:52.968Z,86.80
2018-03-20T04:59:20.577Z,86.73
2018-03-20T05:01:48.230Z,86.71
2018-03-20T05:04:16.208Z,86.64
2018-03-20T05:06:43.851Z,86.71
2018-03-20T05:09:11.469Z,86.49
2018-03-20T05:11:39.124Z,86.19
2018-03-20T05:14:06.677Z,85.88
2018-03-20T05:16:34.313Z,86.07
2018-03-20T05:19:07.763Z,85.86
2018-03-20T05:21:54.078Z,85.86
2018-03-20T05:24:21.694Z,85.32
2018-03-20T05:26:49.452Z,84.99
2018-03-20T05:29:17.374Z,84.79
2018-03-20T05:31:44.981Z,84.42
2018-03-20T05:34:12.629Z,84.37
2018-03-20T05:36:40.382Z,84.16
2018-03-20T05:39:07.973Z,83.87
2018-03-20T05:41:35.676Z,83.82
2018-03-20T05:44:03.304Z,83.95
2018-03-20T05:46:36.647Z,83.38
2018-03-20T05:52:13.751Z,83.38
2018-03-20T05:54:41.363Z,83.26
2018-03-20T05:57:09.034Z,83.02
2018-03-20T05:59:36.628Z,82.95
2018-03-20T06:02:04.225Z,83.08
2018-03-20T06:04:31.880Z,82.73
2018-03-20T06:06:59.517Z,82.59
2018-03-20T06:09:27.198Z,82.53
2018-03-20T06:11:54.908Z,82.31
2018-03-20T06:14:25.883Z,82.89
2018-03-20T06:16:53.993Z,82.70
2018-03-20T06:19:21.660Z,82.79
2018-03-20T06:21:49.288Z,82.41
2018-03-20T06:24:16.867Z,82.43
2018-03-20T06:26:44.545Z,82.18
2018-03-20T06:29:12.439Z,82.36
2018-03-20T06:31:40.797Z,82.03
2018-03-20T06:34:08.439Z,81.98
2018-03-20T06:36:36.068Z,82.06
2018-03-20T06:39:03.696Z,82.25
2018-03-20T06:41:31.356Z,81.97
2018-03-20T06:43:58.963Z,81.31
2018-03-20T06:46:26.808Z,81.15
2018-03-20T06:48:54.492Z,81.18
2018-03-20T06:51:22.140Z,80.67
2018-03-20T06:53:49.813Z,80.62
2018-03-20T06:56:17.600Z,80.23
2018-03-20T06:58:45.421Z,80.26
2018-03-20T07:01:13.082Z,79.33
2018-03-20T07:03:40.699Z,79.35
2018-03-20T07:06:08.348Z,78.72
2018-03-20T07:08:36.055Z,79.11
2018-03-20T07:11:03.717Z,78.34
2018-03-20T07:13:31.809Z,78.15
2018-03-20T07:15:59.815Z,78.18
2018-03-20T07:18:27.598Z,76.87
2018-03-20T07:20:55.614Z,76.40
2018-03-20T07:23:23.686Z,75.87
2018-03-20T07:25:51.419Z,76.54
2018-03-20T07:28:19.138Z,74.95
2018-03-20T07:30:46.851Z,74.38
2018-03-20T07:33:14.616Z,74.81
2018-03-20T07:35:42.285Z,74.62
2018-03-20T07:38:09.939Z,74.32
2018-03-20T07:40:37.517Z,74.51
2018-03-20T07:43:05.129Z,73.18
2018-03-20T07:45:32.760Z,72.25
2018-03-20T07:48:00.378Z,72.37
2018-03-20T07:50:28.015Z,73.56
2018-03-20T07:52:55.976Z,72.90
2018-03-20T07:55:23.539Z,71.85
2018-03-20T07:57:51.158Z,71.09
2018-03-20T08:00:18.804Z,69.84
2018-03-20T08:02:47.105Z,70.53
2018-03-20T08:05:14.756Z,69.47
2018-03-20T08:07:42.320Z,69.49
2018-03-20T08:10:10.112Z,68.73
2018-03-20T08:12:37.944Z,68.43
2018-03-20T08:15:05.574Z,69.29
2018-03-20T08:17:33.150Z,68.94
2018-03-20T08:20:00.715Z,68.54
2018-03-20T08:22:28.321Z,68.78
2018-03-20T08:24:55.962Z,67.86
2018-03-20T08:27:23.610Z,66.94
2018-03-20T08:29:51.255Z,68.19
2018-03-20T08:32:18.822Z,66.67
2018-03-20T08:34:46.384Z,67.20
2018-03-20T08:37:14.268Z,66.17
2018-03-20T08:39:42.059Z,65.38
2018-03-20T08:42:09.693Z,64.56
2018-03-20T08:44:37.330Z,64.95
2018-03-20T08:47:04.957Z,65.07
2018-03-20T08:49:32.565Z,63.65
2018-03-20T08:52:00.228Z,62.69
2018-03-20T08:54:28.910Z,62.97
2018-03-20T08:56:56.485Z,62.71
2018-03-20T08:59:24.053Z,62.33
2018-03-20T09:01:51.764Z,61.77
2018-03-20T09:04:19.471Z,61.23
2018-03-20T09:06:47.448Z,60.74
2018-03-20T09:09:15.168Z,62.22
2018-03-20T09:11:42.734Z,60.16
2018-03-20T09:14:10.557Z,60.46
2018-03-20T09:16:38.466Z,59.08
2018-03-20T09:19:06.164Z,59.00
2018-03-20T09:21:33.826Z,60.84
2018-03-20T09:24:01.426Z,60.58
2018-03-20T09:26:29.055Z,59.58
2018-03-20T09:28:57.537Z,58.71
2018-03-20T09:31:25.147Z,58.57
2018-03-20T09:33:53.071Z,57.33
2018-03-20T09:36:20.690Z,57.39
2018-03-20T09:38:48.333Z,56.78
2018-03-20T09:41:15.895Z,58.06
2018-03-20T09:43:43.573Z,57.98
2018-03-20T09:46:11.166Z,56.21
2018-03-20T09:48:38.878Z,55.54
2018-03-20T09:51:06.521Z,55.15
2018-03-20T09:53:34.170Z,55.38
2018-03-20T09:56:01.757Z,51.97
2018-03-20T09:58:29.414Z,52.79
2018-03-20T10:00:58.150Z,53.53
2018-03-20T10:03:25.770Z,49.47
2018-03-20T10:05:53.365Z,50.50
2018-03-20T10:08:20.984Z,51.67
2018-03-20T10:10:48.562Z,50.12
2018-03-20T10:13:16.419Z,49.75
2018-03-20T10:15:43.990Z,47.50
2018-03-20T10:18:11.573Z,47.13
2018-03-20T10:20:39.208Z,45.65
2018-03-20T10:23:06.793Z,45.60
2018-03-20T10:25:34.354Z,46.59
2018-03-20T10:28:02.354Z,49.38
2018-03-20T10:30:30.005Z,48.31
2018-03-20T10:32:57.588Z,46.84
2018-03-20T10:35:25.251Z,45.17
2018-03-20T10:37:52.916Z,44.81
2018-03-20T10:40:20.479Z,44.22
2018-03-20T10:42:48.211Z,43.93
2018-03-20T10:45:15.878Z,43.75
2018-03-20T10:47:43.530Z,43.47
2018-03-20T10:50:11.206Z,43.28
2018-03-20T10:52:38.806Z,42.51
2018-03-20T10:55:06.418Z,42.08
2018-03-20T10:57:34.055Z,40.78
2018-03-20T11:00:01.748Z,42.48
2018-03-20T11:02:32.130Z,41.20
2018-03-20T11:04:59.785Z,41.64
2018-03-20T11:07:27.634Z,39.43
2018-03-20T11:09:55.221Z,37.99
2018-03-20T11:12:22.818Z,38.68
2018-03-20T11:14:50.466Z,39.91
2018-03-20T11:17:18.235Z,40.06
2018-03-20T11:19:47.535Z,39.67
2018-03-20T11:22:15.151Z,40.45
2018-03-20T11:24:43.896Z,40.82
2018-03-20T11:27:11.487Z,38.88
2018-03-20T11:29:39.158Z,39.28
2018-03-20T11:32:06.826Z,38.90
2018-03-20T11:34:34.445Z,38.16
2018-03-20T11:37:02.086Z,36.04
2018-03-20T11:39:29.747Z,37.52
2018-03-20T11:41:57.409Z,37.98
2018-03-20T11:44:24.975Z,37.23
2018-03-20T11:46:52.585Z,38.78
2018-03-20T11:49:20.157Z,38.38
2018-03-20T11:51:47.756Z,37.61
2018-03-20T11:54:15.401Z,37.79
2018-03-20T11:56:43.315Z,37.93
2018-03-20T11:59:10.892Z,38.42
2018-03-20T12:01:38.779Z,36.71
2018-03-20T12:04:06.484Z,37.45
2018-03-20T12:06:34.046Z,36.99
2018-03-20T12:12:07.607Z,38.43
2018-03-20T12:14:35.312Z,37.91
2018-03-20T12:17:02.925Z,37.83
2018-03-20T12:19:30.527Z,37.18
2018-03-20T12:21:58.146Z,36.95
2018-03-20T12:24:25.761Z,36.82
2018-03-20T12:26:53.409Z,36.35
2018-03-20T12:29:21.044Z,36.94
2018-03-20T12:31:48.629Z,36.76
2018-03-20T12:34:16.253Z,35.46
2018-03-20T12:36:43.971Z,34.62
2018-03-20T12:39:11.745Z,35.67
2018-03-20T12:41:39.309Z,34.90
2018-03-20T12:44:06.915Z,36.07
2018-03-20T12:46:34.521Z,34.52
2018-03-20T12:49:02.390Z,35.60
2018-03-20T12:51:30.184Z,33.85
2018-03-20T12:53:57.787Z,33.61
2018-03-20T12:56:25.442Z,33.93
2018-03-20T12:58:53.263Z,32.45
2018-03-20T13:01:22.399Z,32.26
2018-03-20T13:03:50.023Z,32.18
2018-03-20T13:06:17.687Z,32.73
2018-03-20T13:08:45.307Z,33.73
2018-03-20T13:11:13.341Z,34.64
2018-03-20T13:13:40.940Z,34.25
2018-03-20T13:16:08.585Z,33.49
2018-03-20T13:18:36.535Z,32.06
2018-03-20T13:21:04.096Z,32.90
2018-03-20T13:23:31.688Z,33.37
2018-03-20T13:25:59.412Z,34.65
2018-03-20T13:28:26.990Z,34.05
2018-03-20T13:30:54.566Z,33.98
2018-03-20T13:33:22.205Z,35.04
2018-03-20T13:35:49.786Z,34.06
2018-03-20T13:38:18.016Z,32.69
2018-03-20T13:40:45.911Z,33.07
2018-03-20T13:43:13.524Z,34.73
2018-03-20T13:45:41.445Z,34.71
2018-03-20T13:48:09.011Z,33.71
2018-03-20T13:50:36.655Z,34.29
2018-03-20T13:53:04.225Z,34.56
2018-03-20T13:55:31.876Z,34.67
2018-03-20T13:57:59.489Z,34.49
2018-03-20T14:00:27.398Z,34.38
2018-03-20T14:02:55.011Z,32.74
2018-03-20T14:05:22.845Z,33.30
2018-03-20T14:07:50.460Z,33.10
2018-03-20T14:10:18.092Z,30.63
2018-03-20T14:12:45.680Z,29.90
2018-03-20T14:15:13.677Z,30.99
2018-03-20T14:17:41.310Z,31.63
2018-03-20T14:20:08.985Z,30.50
2018-03-20T14:22:36.827Z,28.72
2018-03-20T14:25:04.496Z,29.69
2018-03-20T14:27:32.099Z,29.51
2018-03-20T14:29:59.996Z,30.53
2018-03-20T14:32:27.623Z,31.06
2018-03-20T14:34:55.200Z,31.21
2018-03-20T14:37:22.805Z,32.00
2018-03-20T14:39:50.623Z,30.79
2018-03-20T14:42:18.256Z,30.26
2018-03-20T14:44:45.873Z,30.90
2018-03-20T14:47:13.502Z,31.14
2018-03-20T14:49:41.114Z,31.97
2018-03-20T14:52:08.716Z,31.79
2018-03-20T14:54:36.342Z,31.25
2018-03-20T14:57:03.943Z,30.29
2018-03-20T14:59:31.574Z,29.10
2018-03-20T15:01:59.227Z,29.81
2018-03-20T15:04:26.880Z,31.65
2018-03-20T15:06:54.507Z,30.25
2018-03-20T15:09:22.153Z,32.38
2018-03-20T15:11:50.125Z,32.99
2018-03-20T15:14:17.694Z,32.75
2018-03-20T15:16:45.342Z,32.67
2018-03-20T15:19:13.413Z,32.00
2018-03-20T15:21:41.159Z,32.79
2018-03-20T15:24:08.787Z,31.70
2018-03-20T15:26:37.115Z,32.18
2018-03-20T15:29:04.791Z,33.83
2018-03-20T15:31:32.383Z,35.35
2018-03-20T15:34:00.528Z,36.04
2018-03-20T15:36:28.260Z,35.66
2018-03-20T15:38:55.838Z,36.28
2018-03-20T15:41:23.418Z,36.84
2018-03-20T15:43:51.111Z,37.00
2018-03-20T15:46:18.691Z,37.02
2018-03-20T15:48:46.303Z,37.33
2018-03-20T15:51:13.892Z,37.31
2018-03-20T15:53:41.523Z,37.87
2018-03-20T15:56:09.161Z,37.95
2018-03-20T15:58:36.730Z,37.87
2018-03-20T16:01:04.302Z,38.49
2018-03-20T16:03:31.986Z,38.36
2018-03-20T16:05:59.583Z,38.55
2018-03-20T16:08:27.369Z,39.07
2018-03-20T16:10:54.989Z,39.22
2018-03-20T16:13:22.621Z,39.03
2018-03-20T16:15:50.211Z,39.13
2018-03-20T16:18:17.785Z,39.39
2018-03-20T16:20:45.433Z,39.74
2018-03-20T16:23:13.112Z,39.86
2018-03-20T16:25:40.718Z,38.22
2018-03-20T16:28:08.397Z,39.63
2018-03-20T16:30:35.979Z,40.76
2018-03-20T16:33:03.637Z,40.17
2018-03-20T16:35:31.233Z,41.30
2018-03-20T16:37:58.790Z,42.04
2018-03-20T16:40:26.381Z,42.41
2018-03-20T16:42:54.121Z,42.84
2018-03-20T16:45:21.692Z,42.31
2018-03-20T16:47:49.352Z,42.17
2018-03-20T16:50:17.006Z,42.11
2018-03-20T16:52:44.641Z,42.38
2018-03-20T16:55:12.250Z,43.18
2018-03-20T16:57:39.842Z,43.00
2018-03-20T17:00:07.415Z,42.78
2018-03-20T17:02:35.120Z,43.25
2018-03-20T17:05:02.672Z,43.25
2018-03-20T17:07:30.327Z,43.36
2018-03-20T17:09:57.884Z,43.37
2018-03-20T17:12:25.540Z,43.50
2018-03-20T17:14:53.146Z,43.56
2018-03-20T17:17:21.307Z,43.49
2018-03-20T17:19:48.936Z,43.71
2018-03-20T17:22:16.708Z,43.96
2018-03-20T17:24:44.556Z,44.70
2018-03-20T17:27:12.223Z,45.22
2018-03-20T17:29:39.905Z,46.16
2018-03-20T17:32:07.507Z,49.96
2018-03-20T17:34:35.075Z,50.77
2018-03-20T17:37:02.718Z,51.68
2018-03-20T17:39:30.392Z,52.57
2018-03-20T17:41:57.945Z,52.80
2018-03-20T17:44:25.534Z,53.53
2018-03-20T17:46:53.460Z,53.55
2018-03-20T17:49:21.075Z,53.97
2018-03-20T17:51:48.660Z,53.68
2018-03-20T17:54:16.238Z,54.21
2018-03-20T17:56:43.911Z,54.35
2018-03-20T17:59:11.484Z,55.33
2018-03-20T18:01:39.151Z,55.62
2018-03-20T18:04:06.803Z,55.67
2018-03-20T18:06:34.707Z,55.50
2018-03-20T18:09:02.441Z,55.63
2018-03-20T18:11:30.079Z,55.96
2018-03-20T18:13:57.702Z,56.20
2018-03-20T18:16:25.294Z,56.79
2018-03-20T18:18:52.927Z,56.62
2018-03-20T18:21:20.564Z,56.84
2018-03-20T18:23:48.131Z,57.05
2018-03-20T18:26:15.733Z,57.41
2018-03-20T18:28:43.352Z,57.40
2018-03-20T18:31:11.043Z,57.42
2018-03-20T18:33:38.612Z,57.54
2018-03-20T18:36:06.499Z,58.19
2018-03-20T18:38:34.147Z,58.19
2018-03-20T18:41:01.717Z,58.44
2018-03-20T18:43:29.592Z,58.52
2018-03-20T18:45:57.229Z,58.98
2018-03-20T18:48:24.876Z,59.43
2018-03-20T18:50:52.482Z,59.46
2018-03-20T18:53:20.070Z,59.75
2018-03-20T18:55:47.707Z,59.96
2018-03-20T18:58:15.341Z,60.43
2018-03-20T19:00:43.234Z,60.24
2018-03-20T19:03:11.106Z,60.79
2018-03-20T19:05:38.800Z,61.38
2018-03-20T19:08:06.599Z,61.97
2018-03-20T19:10:34.178Z,62.25
2018-03-20T19:13:01.821Z,62.50
2018-03-20T19:15:29.710Z,63.29
2018-03-20T19:17:57.266Z,63.67
2018-03-20T19:20:24.997Z,63.65
2018-03-20T19:22:52.743Z,64.08
2018-03-20T19:25:20.322Z,64.75
2018-03-20T19:27:47.936Z,64.38
2018-03-20T19:30:15.572Z,64.48
2018-03-20T19:32:43.142Z,64.43
2018-03-20T19:35:10.754Z,64.41
2018-03-20T19:37:38.400Z,64.38
2018-03-20T19:40:05.975Z,64.24
2018-03-20T19:42:33.623Z,64.48
2018-03-20T19:45:01.206Z,64.08
2018-03-20T19:47:28.770Z,63.84
2018-03-20T19:49:56.786Z,63.67
2018-03-20T19:52:24.374Z,63.47
2018-03-20T19:54:51.939Z,63.48
2018-03-20T19:57:19.562Z,63.51
2018-03-20T19:59:47.157Z,63.44
2018-03-20T20:02:14.754Z,63.50
2018-03-20T20:04:42.351Z,63.49
2018-03-20T20:07:10.006Z,63.55
2018-03-20T20:09:37.644Z,63.67
2018-03-20T20:12:05.199Z,64.50
2018-03-20T20:14:32.903Z,64.63
2018-03-20T20:17:00.501Z,64.58
2018-03-20T20:19:28.331Z,64.57
2018-03-20T20:21:55.989Z,64.45
2018-03-20T20:24:23.580Z,64.38
2018-03-20T20:26:51.149Z,64.43
2018-03-20T20:29:18.804Z,64.58
2018-03-20T20:31:46.493Z,64.64
2018-03-20T20:34:14.393Z,64.54
2018-03-20T20:36:42.006Z,64.80
2018-03-20T20:39:09.665Z,65.15
2018-03-20T20:41:37.633Z,65.47
2018-03-20T20:44:05.204Z,65.72
2018-03-20T20:46:32.907Z,65.90
2018-03-20T20:49:00.568Z,66.07
2018-03-20T20:51:28.225Z,66.42
2018-03-20T20:53:55.796Z,66.61
2018-03-20T20:56:23.413Z,66.89
2018-03-20T20:58:51.081Z,66.93
2018-03-20T21:01:18.669Z,67.01
2018-03-20T21:03:46.832Z,67.08
2018-03-20T21:06:14.509Z,67.11
2018-03-20T21:08:42.090Z,67.55
2018-03-20T21:11:09.742Z,67.64
2018-03-20T21:13:37.327Z,67.87
2018-03-20T21:16:04.944Z,68.21
2018-03-20T21:18:32.537Z,68.42
2018-03-20T21:21:00.121Z,68.64
2018-03-20T21:23:27.992Z,68.97
2018-03-20T21:25:55.654Z,69.24
2018-03-20T21:28:23.248Z,69.49
2018-03-20T21:30:50.897Z,70.01
2018-03-20T21:33:18.554Z,70.37
2018-03-20T21:35:46.110Z,70.60
2018-03-20T21:38:18.650Z,70.85
2018-03-20T21:40:46.244Z,71.11
2018-03-20T21:43:13.905Z,71.40
2018-03-20T21:45:41.493Z,71.51
2018-03-20T21:48:09.327Z,71.72
2018-03-20T21:50:36.928Z,71.92
2018-03-20T21:53:04.781Z,72.07
2018-03-20T21:55:32.436Z,72.45
2018-03-20T21:58:00.980Z,72.64
2018-03-20T22:00:28.567Z,72.83
2018-03-20T22:02:56.256Z,72.95
2018-03-20T22:05:23.930Z,73.17
2018-03-20T22:07:51.623Z,72.90
2018-03-20T22:10:19.223Z,72.74
2018-03-20T22:12:46.995Z,72.63
2018-03-20T22:15:14.577Z,72.51
2018-03-20T22:17:42.220Z,72.41
2018-03-20T22:20:09.907Z,72.46
2018-03-20T22:22:37.565Z,72.59
2018-03-20T22:25:05.161Z,72.63
2018-03-20T22:27:32.780Z,72.79
2018-03-20T22:30:00.371Z,73.34
2018-03-20T22:32:28.020Z,73.84
2018-03-20T22:34:55.692Z,74.23
2018-03-20T22:37:23.355Z,74.52
2018-03-20T22:39:51.042Z,74.87
2018-03-20T22:42:18.779Z,75.02
2018-03-20T22:44:46.338Z,75.17
2018-03-20T22:47:13.945Z,75.22
2018-03-20T22:49:41.673Z,75.30
2018-03-20T22:52:09.375Z,75.29
2018-03-20T22:54:36.944Z,74.99
2018-03-20T22:57:04.566Z,74.68
2018-03-20T22:59:32.391Z,74.44
2018-03-20T23:02:00.015Z,74.40
2018-03-20T23:04:27.611Z,74.76
2018-03-20T23:06:56.229Z,75.41
2018-03-20T23:09:23.810Z,75.88
2018-03-20T23:11:51.400Z,76.20
2018-03-20T23:14:19.718Z,76.61
2018-03-20T23:16:47.369Z,76.91
2018-03-20T23:19:15.041Z,77.14
2018-03-20T23:21:42.676Z,77.72
2018-03-20T23:24:10.490Z,77.85
2018-03-20T23:26:38.081Z,78.09
2018-03-20T23:29:05.641Z,78.32
2018-03-20T23:31:33.228Z,78.97
2018-03-20T23:34:00.838Z,79.09
2018-03-20T23:36:28.524Z,79.37
2018-03-20T23:38:56.158Z,79.51
2018-03-20T23:41:23.831Z,80.16
2018-03-20T23:43:51.457Z,80.46
2018-03-20T23:46:19.037Z,80.83
2018-03-20T23:48:46.614Z,80.96
2018-03-20T23:51:14.240Z,81.76
2018-03-20T23:53:41.825Z,81.57
2018-03-20T23:56:09.402Z,82.35
2018-03-20T23:58:37.138Z,82.21
